sensor_id;sensor_type;location;lat;lon;timestamp;temperature;humidity
28177;DHT22;15461;41.652;9.378;2022-09-01T00:01:50;23.30;99.90
28177;DHT22;15461;41.652;9.378;2022-09-01T00:04:17;23.40;99.90
28177;DHT22;15461;41.652;9.378;2022-09-01T00:06:44;23.50;99.90
28177;DHT22;15461;41.652;9.378;2022-09-01T00:09:12;23.50;99.90
28177;DHT22;15461;41.652;9.378;2022-09-01T00:11:38;23.50;99.90
28177;DHT22;15461;41.652;9.378;2022-09-01T00:14:05;23.60;99.90
28177;DHT22;15461;41.652;9.378;2022-09-01T00:16:31;23.60;99.90
28177;DHT22;15461;41.652;9.378;2022-09-01T00:18:57;23.60;99.90
28177;DHT22;15461;41.652;9.378;2022-09-01T00:21:24;23.60;99.90
28177;DHT22;15461;41.652;9.378;2022-09-01T00:23:50;23.70;99.90
28177;DHT22;15461;41.652;9.378;2022-09-01T00:26:16;23.60;99.90
28177;DHT22;15461;41.652;9.378;2022-09-01T00:28:42;23.60;99.90
28177;DHT22;15461;41.652;9.378;2022-09-01T00:31:08;23.70;99.90
28177;DHT22;15461;41.652;9.378;2022-09-01T00:33:35;23.70;99.90
28177;DHT22;15461;41.652;9.378;2022-09-01T00:36:02;23.70;99.90
28177;DHT22;15461;41.652;9.378;2022-09-01T00:38:28;23.70;99.90
28177;DHT22;15461;41.652;9.378;2022-09-01T00:40:54;23.70;99.90
28177;DHT22;15461;41.652;9.378;2022-09-01T00:43:21;23.60;99.90
28177;DHT22;15461;41.652;9.378;2022-09-01T00:45:48;23.60;99.90
28177;DHT22;15461;41.652;9.378;2022-09-01T00:48:18;23.60;99.90
28177;DHT22;15461;41.652;9.378;2022-09-01T00:50:46;23.50;99.90
28177;DHT22;15461;41.652;9.378;2022-09-01T00:53:12;23.50;99.90
28177;DHT22;15461;41.652;9.378;2022-09-01T00:55:37;23.50;99.90
28177;DHT22;15461;41.652;9.378;2022-09-01T00:58:04;23.50;99.90
28177;DHT22;15461;41.652;9.378;2022-09-01T01:00:31;23.50;99.90
28177;DHT22;15461;41.652;9.378;2022-09-01T01:02:57;23.50;99.90
28177;DHT22;15461;41.652;9.378;2022-09-01T01:05:24;23.60;99.90
28177;DHT22;15461;41.652;9.378;2022-09-01T01:07:52;23.60;99.90
28177;DHT22;15461;41.652;9.378;2022-09-01T01:10:19;23.70;99.90
28177;DHT22;15461;41.652;9.378;2022-09-01T01:12:47;23.70;99.90
28177;DHT22;15461;41.652;9.378;2022-09-01T01:15:16;23.70;99.90
28177;DHT22;15461;41.652;9.378;2022-09-01T01:17:42;23.70;99.90
28177;DHT22;15461;41.652;9.378;2022-09-01T01:20:08;23.70;99.90
28177;DHT22;15461;41.652;9.378;2022-09-01T01:23:13;23.70;99.90
28177;DHT22;15461;41.652;9.378;2022-09-01T01:25:42;23.70;99.90
28177;DHT22;15461;41.652;9.378;2022-09-01T01:28:17;23.70;99.90
28177;DHT22;15461;41.652;9.378;2022-09-01T01:30:49;23.70;99.90
28177;DHT22;15461;41.652;9.378;2022-09-01T01:33:24;23.70;99.90
28177;DHT22;15461;41.652;9.378;2022-09-01T01:35:51;23.80;99.90
28177;DHT22;15461;41.652;9.378;2022-09-01T01:38:18;23.80;99.90
28177;DHT22;15461;41.652;9.378;2022-09-01T01:40:48;23.80;99.90
28177;DHT22;15461;41.652;9.378;2022-09-01T01:43:14;23.70;99.90
28177;DHT22;15461;41.652;9.378;2022-09-01T01:45:45;23.80;99.90
28177;DHT22;15461;41.652;9.378;2022-09-01T01:48:14;23.80;99.90
28177;DHT22;15461;41.652;9.378;2022-09-01T01:50:40;23.70;99.90
28177;DHT22;15461;41.652;9.378;2022-09-01T01:53:07;23.70;99.90
28177;DHT22;15461;41.652;9.378;2022-09-01T01:55:34;23.70;99.90
28177;DHT22;15461;41.652;9.378;2022-09-01T01:58:01;23.70;99.90
28177;DHT22;15461;41.652;9.378;2022-09-01T02:00:29;23.60;99.90
28177;DHT22;15461;41.652;9.378;2022-09-01T02:02:57;23.60;99.90
28177;DHT22;15461;41.652;9.378;2022-09-01T02:05:24;23.60;99.90
28177;DHT22;15461;41.652;9.378;2022-09-01T02:07:56;23.60;99.90
28177;DHT22;15461;41.652;9.378;2022-09-01T02:10:25;23.60;99.90
28177;DHT22;15461;41.652;9.378;2022-09-01T02:12:52;23.50;99.90
28177;DHT22;15461;41.652;9.378;2022-09-01T02:15:18;23.40;99.90
28177;DHT22;15461;41.652;9.378;2022-09-01T02:17:44;23.30;99.90
28177;DHT22;15461;41.652;9.378;2022-09-01T02:20:10;23.30;99.90
28177;DHT22;15461;41.652;9.378;2022-09-01T02:22:36;23.20;99.90
28177;DHT22;15461;41.652;9.378;2022-09-01T02:25:09;23.10;99.90
28177;DHT22;15461;41.652;9.378;2022-09-01T02:27:35;23.10;99.90
28177;DHT22;15461;41.652;9.378;2022-09-01T02:30:05;23.00;99.90
28177;DHT22;15461;41.652;9.378;2022-09-01T02:32:36;23.00;99.90
28177;DHT22;15461;41.652;9.378;2022-09-01T02:35:03;23.00;99.90
28177;DHT22;15461;41.652;9.378;2022-09-01T02:37:32;23.00;99.90
28177;DHT22;15461;41.652;9.378;2022-09-01T02:39:58;22.90;99.90
28177;DHT22;15461;41.652;9.378;2022-09-01T02:42:24;22.80;99.90
28177;DHT22;15461;41.652;9.378;2022-09-01T02:44:55;22.70;99.90
28177;DHT22;15461;41.652;9.378;2022-09-01T02:47:21;22.60;99.90
28177;DHT22;15461;41.652;9.378;2022-09-01T02:49:51;22.50;99.90
28177;DHT22;15461;41.652;9.378;2022-09-01T02:52:17;22.40;99.90
28177;DHT22;15461;41.652;9.378;2022-09-01T02:54:48;22.30;99.90
28177;DHT22;15461;41.652;9.378;2022-09-01T02:57:14;22.20;99.90
28177;DHT22;15461;41.652;9.378;2022-09-01T02:59:40;22.10;99.90
28177;DHT22;15461;41.652;9.378;2022-09-01T03:02:07;22.00;99.90
28177;DHT22;15461;41.652;9.378;2022-09-01T03:04:33;21.90;99.90
28177;DHT22;15461;41.652;9.378;2022-09-01T03:07:00;21.80;99.90
28177;DHT22;15461;41.652;9.378;2022-09-01T03:09:26;21.80;99.90
28177;DHT22;15461;41.652;9.378;2022-09-01T03:11:53;21.80;99.90
28177;DHT22;15461;41.652;9.378;2022-09-01T03:14:19;21.70;99.90
28177;DHT22;15461;41.652;9.378;2022-09-01T03:16:46;21.70;99.90
28177;DHT22;15461;41.652;9.378;2022-09-01T03:19:11;21.70;99.90
28177;DHT22;15461;41.652;9.378;2022-09-01T03:21:41;21.60;99.90
28177;DHT22;15461;41.652;9.378;2022-09-01T03:24:08;21.60;99.90
28177;DHT22;15461;41.652;9.378;2022-09-01T03:26:34;21.60;99.90
28177;DHT22;15461;41.652;9.378;2022-09-01T03:29:01;21.60;99.90
28177;DHT22;15461;41.652;9.378;2022-09-01T03:31:27;21.60;99.90
28177;DHT22;15461;41.652;9.378;2022-09-01T03:33:55;21.60;99.90
28177;DHT22;15461;41.652;9.378;2022-09-01T03:36:27;21.60;99.90
28177;DHT22;15461;41.652;9.378;2022-09-01T03:38:54;21.60;99.90
28177;DHT22;15461;41.652;9.378;2022-09-01T03:41:21;21.50;99.90
28177;DHT22;15461;41.652;9.378;2022-09-01T03:43:49;21.50;99.90
28177;DHT22;15461;41.652;9.378;2022-09-01T03:46:16;21.50;99.90
28177;DHT22;15461;41.652;9.378;2022-09-01T03:48:48;21.60;99.90
28177;DHT22;15461;41.652;9.378;2022-09-01T03:51:16;21.60;99.90
28177;DHT22;15461;41.652;9.378;2022-09-01T03:53:41;21.60;99.90
28177;DHT22;15461;41.652;9.378;2022-09-01T03:56:09;21.60;99.90
28177;DHT22;15461;41.652;9.378;2022-09-01T03:58:36;21.70;99.90
28177;DHT22;15461;41.652;9.378;2022-09-01T04:01:03;21.70;99.90
28177;DHT22;15461;41.652;9.378;2022-09-01T04:03:30;21.70;99.90
28177;DHT22;15461;41.652;9.378;2022-09-01T04:05:58;21.70;99.90
28177;DHT22;15461;41.652;9.378;2022-09-01T04:08:24;21.70;99.90
28177;DHT22;15461;41.652;9.378;2022-09-01T04:10:53;21.70;99.90
28177;DHT22;15461;41.652;9.378;2022-09-01T04:15:45;21.60;99.90
28177;DHT22;15461;41.652;9.378;2022-09-01T04:18:11;21.60;99.90
28177;DHT22;15461;41.652;9.378;2022-09-01T04:20:47;21.60;99.90
28177;DHT22;15461;41.652;9.378;2022-09-01T04:23:22;21.60;99.90
28177;DHT22;15461;41.652;9.378;2022-09-01T04:25:53;21.60;99.90
28177;DHT22;15461;41.652;9.378;2022-09-01T04:28:21;21.60;99.90
28177;DHT22;15461;41.652;9.378;2022-09-01T04:30:51;21.60;99.90
28177;DHT22;15461;41.652;9.378;2022-09-01T04:33:19;21.60;99.90
28177;DHT22;15461;41.652;9.378;2022-09-01T04:35:45;21.60;99.90
28177;DHT22;15461;41.652;9.378;2022-09-01T04:38:11;21.60;99.90
28177;DHT22;15461;41.652;9.378;2022-09-01T04:40:42;21.70;99.90
28177;DHT22;15461;41.652;9.378;2022-09-01T04:43:08;21.70;99.90
28177;DHT22;15461;41.652;9.378;2022-09-01T04:45:35;21.70;99.90
28177;DHT22;15461;41.652;9.378;2022-09-01T04:48:04;21.70;99.90
28177;DHT22;15461;41.652;9.378;2022-09-01T04:50:30;21.70;99.90
28177;DHT22;15461;41.652;9.378;2022-09-01T04:53:29;21.60;99.90
28177;DHT22;15461;41.652;9.378;2022-09-01T04:55:56;21.50;99.90
28177;DHT22;15461;41.652;9.378;2022-09-01T04:58:29;21.40;99.90
28177;DHT22;15461;41.652;9.378;2022-09-01T05:00:55;21.70;99.90
28177;DHT22;15461;41.652;9.378;2022-09-01T05:03:22;22.00;99.90
28177;DHT22;15461;41.652;9.378;2022-09-01T05:06:16;22.20;99.90
28177;DHT22;15461;41.652;9.378;2022-09-01T05:08:47;22.50;99.90
28177;DHT22;15461;41.652;9.378;2022-09-01T05:11:31;22.60;99.90
28177;DHT22;15461;41.652;9.378;2022-09-01T05:14:05;22.60;99.90
28177;DHT22;15461;41.652;9.378;2022-09-01T05:16:33;22.50;99.90
28177;DHT22;15461;41.652;9.378;2022-09-01T05:18:59;22.60;99.90
28177;DHT22;15461;41.652;9.378;2022-09-01T05:21:29;22.60;99.90
28177;DHT22;15461;41.652;9.378;2022-09-01T05:23:58;22.50;99.90
28177;DHT22;15461;41.652;9.378;2022-09-01T05:26:27;22.50;99.90
28177;DHT22;15461;41.652;9.378;2022-09-01T05:28:55;22.20;99.90
28177;DHT22;15461;41.652;9.378;2022-09-01T05:31:22;22.20;99.90
28177;DHT22;15461;41.652;9.378;2022-09-01T05:33:48;22.30;99.90
28177;DHT22;15461;41.652;9.378;2022-09-01T05:36:17;22.30;99.90
28177;DHT22;15461;41.652;9.378;2022-09-01T05:38:45;22.40;99.90
28177;DHT22;15461;41.652;9.378;2022-09-01T05:41:13;22.40;99.90
28177;DHT22;15461;41.652;9.378;2022-09-01T05:43:40;22.40;99.90
28177;DHT22;15461;41.652;9.378;2022-09-01T05:46:12;22.40;99.90
28177;DHT22;15461;41.652;9.378;2022-09-01T05:48:42;22.40;99.90
28177;DHT22;15461;41.652;9.378;2022-09-01T05:51:10;22.50;99.90
28177;DHT22;15461;41.652;9.378;2022-09-01T05:53:37;22.40;99.90
28177;DHT22;15461;41.652;9.378;2022-09-01T05:56:05;22.50;99.90
28177;DHT22;15461;41.652;9.378;2022-09-01T05:58:32;22.40;99.90
28177;DHT22;15461;41.652;9.378;2022-09-01T06:00:59;22.50;99.90
28177;DHT22;15461;41.652;9.378;2022-09-01T06:03:25;22.60;99.90
28177;DHT22;15461;41.652;9.378;2022-09-01T06:05:53;22.50;99.90
28177;DHT22;15461;41.652;9.378;2022-09-01T06:08:21;22.70;99.90
28177;DHT22;15461;41.652;9.378;2022-09-01T06:10:48;22.80;99.90
28177;DHT22;15461;41.652;9.378;2022-09-01T06:13:15;23.00;99.90
28177;DHT22;15461;41.652;9.378;2022-09-01T06:15:42;23.10;99.90
28177;DHT22;15461;41.652;9.378;2022-09-01T06:18:10;23.30;99.90
28177;DHT22;15461;41.652;9.378;2022-09-01T06:20:44;23.50;99.90
28177;DHT22;15461;41.652;9.378;2022-09-01T06:23:11;23.70;99.90
28177;DHT22;15461;41.652;9.378;2022-09-01T06:25:40;23.90;99.90
28177;DHT22;15461;41.652;9.378;2022-09-01T06:28:06;24.20;99.90
28177;DHT22;15461;41.652;9.378;2022-09-01T06:30:34;24.40;99.90
28177;DHT22;15461;41.652;9.378;2022-09-01T06:33:05;24.60;99.90
28177;DHT22;15461;41.652;9.378;2022-09-01T06:35:37;24.80;99.90
28177;DHT22;15461;41.652;9.378;2022-09-01T06:38:04;25.00;99.90
28177;DHT22;15461;41.652;9.378;2022-09-01T06:40:38;25.20;99.90
28177;DHT22;15461;41.652;9.378;2022-09-01T06:43:07;25.40;99.90
28177;DHT22;15461;41.652;9.378;2022-09-01T06:45:41;25.50;99.90
28177;DHT22;15461;41.652;9.378;2022-09-01T06:48:09;25.60;99.90
28177;DHT22;15461;41.652;9.378;2022-09-01T06:50:41;25.70;99.90
28177;DHT22;15461;41.652;9.378;2022-09-01T06:53:08;25.70;99.90
28177;DHT22;15461;41.652;9.378;2022-09-01T06:55:39;25.70;99.90
28177;DHT22;15461;41.652;9.378;2022-09-01T06:58:07;25.60;99.90
28177;DHT22;15461;41.652;9.378;2022-09-01T07:00:37;25.60;99.90
28177;DHT22;15461;41.652;9.378;2022-09-01T07:03:12;25.50;99.90
28177;DHT22;15461;41.652;9.378;2022-09-01T07:05:56;25.30;99.90
28177;DHT22;15461;41.652;9.378;2022-09-01T07:08:42;25.30;99.90
28177;DHT22;15461;41.652;9.378;2022-09-01T07:11:25;25.20;99.90
28177;DHT22;15461;41.652;9.378;2022-09-01T07:13:56;25.20;99.90
28177;DHT22;15461;41.652;9.378;2022-09-01T07:16:23;25.40;99.90
28177;DHT22;15461;41.652;9.378;2022-09-01T07:18:51;25.70;99.90
28177;DHT22;15461;41.652;9.378;2022-09-01T07:21:18;25.90;99.90
28177;DHT22;15461;41.652;9.378;2022-09-01T07:23:46;26.10;99.90
28177;DHT22;15461;41.652;9.378;2022-09-01T07:26:12;26.30;99.90
28177;DHT22;15461;41.652;9.378;2022-09-01T07:28:43;26.40;99.90
28177;DHT22;15461;41.652;9.378;2022-09-01T07:31:17;26.50;99.90
28177;DHT22;15461;41.652;9.378;2022-09-01T07:33:46;26.70;99.90
28177;DHT22;15461;41.652;9.378;2022-09-01T07:36:14;26.90;99.90
28177;DHT22;15461;41.652;9.378;2022-09-01T07:38:41;27.00;99.90
28177;DHT22;15461;41.652;9.378;2022-09-01T07:41:08;27.10;99.90
28177;DHT22;15461;41.652;9.378;2022-09-01T07:43:56;27.10;99.90
28177;DHT22;15461;41.652;9.378;2022-09-01T07:47:00;27.00;99.90
28177;DHT22;15461;41.652;9.378;2022-09-01T07:49:26;27.10;99.90
28177;DHT22;15461;41.652;9.378;2022-09-01T07:51:53;27.20;99.90
28177;DHT22;15461;41.652;9.378;2022-09-01T07:54:19;27.30;99.90
28177;DHT22;15461;41.652;9.378;2022-09-01T07:56:48;27.30;99.90
28177;DHT22;15461;41.652;9.378;2022-09-01T07:59:15;27.40;99.90
28177;DHT22;15461;41.652;9.378;2022-09-01T08:01:52;27.40;99.90
28177;DHT22;15461;41.652;9.378;2022-09-01T08:04:19;27.50;99.90
28177;DHT22;15461;41.652;9.378;2022-09-01T08:06:47;27.60;99.90
28177;DHT22;15461;41.652;9.378;2022-09-01T08:09:14;27.70;99.90
28177;DHT22;15461;41.652;9.378;2022-09-01T08:11:40;27.70;99.90
28177;DHT22;15461;41.652;9.378;2022-09-01T08:14:07;27.70;99.90
28177;DHT22;15461;41.652;9.378;2022-09-01T08:16:33;27.80;99.90
28177;DHT22;15461;41.652;9.378;2022-09-01T08:19:01;27.80;99.90
28177;DHT22;15461;41.652;9.378;2022-09-01T08:21:32;27.90;99.90
28177;DHT22;15461;41.652;9.378;2022-09-01T08:24:02;28.00;99.90
28177;DHT22;15461;41.652;9.378;2022-09-01T08:26:30;28.20;99.90
28177;DHT22;15461;41.652;9.378;2022-09-01T08:28:58;28.40;99.90
28177;DHT22;15461;41.652;9.378;2022-09-01T08:31:38;28.40;99.90
28177;DHT22;15461;41.652;9.378;2022-09-01T08:34:04;28.50;99.90
28177;DHT22;15461;41.652;9.378;2022-09-01T08:36:30;28.50;99.90
28177;DHT22;15461;41.652;9.378;2022-09-01T08:38:56;28.70;99.90
28177;DHT22;15461;41.652;9.378;2022-09-01T08:41:26;28.80;99.90
28177;DHT22;15461;41.652;9.378;2022-09-01T08:46:36;29.00;99.90
28177;DHT22;15461;41.652;9.378;2022-09-01T08:49:06;29.10;99.90
28177;DHT22;15461;41.652;9.378;2022-09-01T08:57:00;29.00;99.90
28177;DHT22;15461;41.652;9.378;2022-09-01T08:59:48;29.10;99.90
28177;DHT22;15461;41.652;9.378;2022-09-01T09:08:09;29.50;99.90
28177;DHT22;15461;41.652;9.378;2022-09-01T09:15:39;29.50;99.90
28177;DHT22;15461;41.652;9.378;2022-09-01T09:18:12;29.60;99.90
28177;DHT22;15461;41.652;9.378;2022-09-01T09:20:38;29.60;99.90
28177;DHT22;15461;41.652;9.378;2022-09-01T09:23:11;29.60;99.90
28177;DHT22;15461;41.652;9.378;2022-09-01T09:25:39;29.70;99.90
28177;DHT22;15461;41.652;9.378;2022-09-01T09:28:05;29.70;99.90
28177;DHT22;15461;41.652;9.378;2022-09-01T09:30:30;29.60;99.90
28177;DHT22;15461;41.652;9.378;2022-09-01T09:33:01;29.70;99.90
28177;DHT22;15461;41.652;9.378;2022-09-01T09:35:41;29.80;99.90
28177;DHT22;15461;41.652;9.378;2022-09-01T09:43:20;30.00;99.90
28177;DHT22;15461;41.652;9.378;2022-09-01T09:45:47;30.00;99.90
28177;DHT22;15461;41.652;9.378;2022-09-01T09:48:26;30.10;99.90
28177;DHT22;15461;41.652;9.378;2022-09-01T09:50:52;30.10;99.90
28177;DHT22;15461;41.652;9.378;2022-09-01T09:56:15;29.90;99.90
28177;DHT22;15461;41.652;9.378;2022-09-01T09:58:38;30.00;99.90
28177;DHT22;15461;41.652;9.378;2022-09-01T10:01:06;30.20;99.90
28177;DHT22;15461;41.652;9.378;2022-09-01T10:03:34;30.10;99.90
28177;DHT22;15461;41.652;9.378;2022-09-01T10:06:00;30.20;99.90
28177;DHT22;15461;41.652;9.378;2022-09-01T10:10:53;30.30;99.90
28177;DHT22;15461;41.652;9.378;2022-09-01T10:13:21;30.30;99.90
28177;DHT22;15461;41.652;9.378;2022-09-01T10:15:51;30.30;99.90
28177;DHT22;15461;41.652;9.378;2022-09-01T10:18:19;30.30;99.90
28177;DHT22;15461;41.652;9.378;2022-09-01T10:20:52;30.20;99.90
28177;DHT22;15461;41.652;9.378;2022-09-01T10:23:19;30.20;99.90
28177;DHT22;15461;41.652;9.378;2022-09-01T10:25:46;30.30;99.90
28177;DHT22;15461;41.652;9.378;2022-09-01T10:28:15;30.40;99.90
28177;DHT22;15461;41.652;9.378;2022-09-01T10:30:43;30.60;99.90
28177;DHT22;15461;41.652;9.378;2022-09-01T10:33:11;30.70;99.90
28177;DHT22;15461;41.652;9.378;2022-09-01T10:35:43;30.60;99.90
28177;DHT22;15461;41.652;9.378;2022-09-01T10:38:21;30.60;99.90
28177;DHT22;15461;41.652;9.378;2022-09-01T10:40:49;30.70;99.90
28177;DHT22;15461;41.652;9.378;2022-09-01T10:46:06;30.40;99.90
28177;DHT22;15461;41.652;9.378;2022-09-01T10:48:33;30.40;99.90
28177;DHT22;15461;41.652;9.378;2022-09-01T10:53:39;30.20;99.90
28177;DHT22;15461;41.652;9.378;2022-09-01T10:56:07;30.20;99.90
28177;DHT22;15461;41.652;9.378;2022-09-01T11:04:05;30.50;99.90
28177;DHT22;15461;41.652;9.378;2022-09-01T11:09:07;30.60;99.90
28177;DHT22;15461;41.652;9.378;2022-09-01T11:14:20;30.70;99.90
28177;DHT22;15461;41.652;9.378;2022-09-01T11:30:05;30.50;99.90
28177;DHT22;15461;41.652;9.378;2022-09-01T11:32:36;30.60;99.90
28177;DHT22;15461;41.652;9.378;2022-09-01T11:35:04;30.60;99.90
28177;DHT22;15461;41.652;9.378;2022-09-01T11:37:31;30.80;99.90
28177;DHT22;15461;41.652;9.378;2022-09-01T11:39:58;30.80;99.90
28177;DHT22;15461;41.652;9.378;2022-09-01T11:42:25;30.80;99.90
28177;DHT22;15461;41.652;9.378;2022-09-01T11:44:59;30.90;99.90
28177;DHT22;15461;41.652;9.378;2022-09-01T11:50:06;30.70;99.90
28177;DHT22;15461;41.652;9.378;2022-09-01T11:52:35;30.80;99.90
28177;DHT22;15461;41.652;9.378;2022-09-01T11:55:03;30.80;99.90
28177;DHT22;15461;41.652;9.378;2022-09-01T11:59:56;30.90;99.90
28177;DHT22;15461;41.652;9.378;2022-09-01T12:02:27;30.90;99.90
28177;DHT22;15461;41.652;9.378;2022-09-01T12:04:58;31.10;99.90
28177;DHT22;15461;41.652;9.378;2022-09-01T12:07:43;31.20;99.90
28177;DHT22;15461;41.652;9.378;2022-09-01T12:10:14;31.10;99.90
28177;DHT22;15461;41.652;9.378;2022-09-01T12:12:40;30.60;99.90
28177;DHT22;15461;41.652;9.378;2022-09-01T12:15:22;30.10;99.90
28177;DHT22;15461;41.652;9.378;2022-09-01T12:17:49;29.60;99.90
28177;DHT22;15461;41.652;9.378;2022-09-01T12:22:43;29.60;99.90
28177;DHT22;15461;41.652;9.378;2022-09-01T12:25:16;29.50;99.90
28177;DHT22;15461;41.652;9.378;2022-09-01T12:27:42;29.70;99.90
28177;DHT22;15461;41.652;9.378;2022-09-01T12:30:08;29.80;99.90
28177;DHT22;15461;41.652;9.378;2022-09-01T12:32:34;29.80;99.90
28177;DHT22;15461;41.652;9.378;2022-09-01T12:35:01;29.70;99.90
28177;DHT22;15461;41.652;9.378;2022-09-01T12:37:27;29.70;99.90
28177;DHT22;15461;41.652;9.378;2022-09-01T12:39:55;29.50;99.90
28177;DHT22;15461;41.652;9.378;2022-09-01T12:42:23;29.60;99.90
28177;DHT22;15461;41.652;9.378;2022-09-01T12:44:51;29.60;99.90
28177;DHT22;15461;41.652;9.378;2022-09-01T12:50:01;29.80;99.90
28177;DHT22;15461;41.652;9.378;2022-09-01T12:52:28;29.90;99.90
28177;DHT22;15461;41.652;9.378;2022-09-01T13:07:47;29.80;99.90
28177;DHT22;15461;41.652;9.378;2022-09-01T13:10:13;29.80;99.90
28177;DHT22;15461;41.652;9.378;2022-09-01T13:12:40;29.60;99.90
28177;DHT22;15461;41.652;9.378;2022-09-01T13:15:06;29.50;99.90
28177;DHT22;15461;41.652;9.378;2022-09-01T13:17:32;29.80;99.90
28177;DHT22;15461;41.652;9.378;2022-09-01T13:19:58;29.90;99.90
28177;DHT22;15461;41.652;9.378;2022-09-01T13:22:24;29.50;99.90
28177;DHT22;15461;41.652;9.378;2022-09-01T13:24:49;29.50;99.90
28177;DHT22;15461;41.652;9.378;2022-09-01T13:27:15;29.40;99.90
28177;DHT22;15461;41.652;9.378;2022-09-01T13:29:41;29.60;99.90
28177;DHT22;15461;41.652;9.378;2022-09-01T13:32:07;29.60;99.90
28177;DHT22;15461;41.652;9.378;2022-09-01T13:34:33;29.50;99.90
28177;DHT22;15461;41.652;9.378;2022-09-01T13:36:59;29.70;99.90
28177;DHT22;15461;41.652;9.378;2022-09-01T13:39:25;29.80;99.90
28177;DHT22;15461;41.652;9.378;2022-09-01T13:41:51;29.90;99.90
28177;DHT22;15461;41.652;9.378;2022-09-01T13:44:17;30.00;99.90
28177;DHT22;15461;41.652;9.378;2022-09-01T13:46:43;30.00;99.90
28177;DHT22;15461;41.652;9.378;2022-09-01T13:49:09;30.10;99.90
28177;DHT22;15461;41.652;9.378;2022-09-01T13:51:35;30.00;99.90
28177;DHT22;15461;41.652;9.378;2022-09-01T13:54:01;30.00;99.90
28177;DHT22;15461;41.652;9.378;2022-09-01T13:56:27;29.80;99.90
28177;DHT22;15461;41.652;9.378;2022-09-01T13:58:53;29.60;99.90
28177;DHT22;15461;41.652;9.378;2022-09-01T14:01:19;29.80;99.90
28177;DHT22;15461;41.652;9.378;2022-09-01T14:03:47;29.80;99.90
28177;DHT22;15461;41.652;9.378;2022-09-01T14:06:14;29.90;99.90
28177;DHT22;15461;41.652;9.378;2022-09-01T14:08:39;29.70;99.90
28177;DHT22;15461;41.652;9.378;2022-09-01T14:11:05;29.70;99.90
28177;DHT22;15461;41.652;9.378;2022-09-01T14:13:31;29.80;99.90
28177;DHT22;15461;41.652;9.378;2022-09-01T14:15:57;29.90;99.90
28177;DHT22;15461;41.652;9.378;2022-09-01T14:18:23;30.10;99.90
28177;DHT22;15461;41.652;9.378;2022-09-01T14:21:01;30.30;99.90
28177;DHT22;15461;41.652;9.378;2022-09-01T14:23:27;30.40;99.90
28177;DHT22;15461;41.652;9.378;2022-09-01T14:25:53;30.30;99.90
28177;DHT22;15461;41.652;9.378;2022-09-01T14:28:19;30.10;99.90
28177;DHT22;15461;41.652;9.378;2022-09-01T14:30:45;29.90;99.90
28177;DHT22;15461;41.652;9.378;2022-09-01T14:33:11;29.90;99.90
28177;DHT22;15461;41.652;9.378;2022-09-01T14:35:38;30.00;99.90
28177;DHT22;15461;41.652;9.378;2022-09-01T14:38:04;30.00;99.90
28177;DHT22;15461;41.652;9.378;2022-09-01T14:40:34;30.00;99.90
28177;DHT22;15461;41.652;9.378;2022-09-01T14:43:02;29.90;99.90
28177;DHT22;15461;41.652;9.378;2022-09-01T14:45:28;29.80;99.90
28177;DHT22;15461;41.652;9.378;2022-09-01T14:47:55;29.50;99.90
28177;DHT22;15461;41.652;9.378;2022-09-01T14:50:21;29.60;99.90
28177;DHT22;15461;41.652;9.378;2022-09-01T14:52:47;29.70;99.90
28177;DHT22;15461;41.652;9.378;2022-09-01T14:55:13;29.90;99.90
28177;DHT22;15461;41.652;9.378;2022-09-01T14:57:39;29.90;99.90
28177;DHT22;15461;41.652;9.378;2022-09-01T15:00:07;29.90;99.90
28177;DHT22;15461;41.652;9.378;2022-09-01T15:02:37;29.60;99.90
28177;DHT22;15461;41.652;9.378;2022-09-01T15:05:04;29.50;99.90
28177;DHT22;15461;41.652;9.378;2022-09-01T15:07:30;29.30;99.90
28177;DHT22;15461;41.652;9.378;2022-09-01T15:09:56;29.40;99.90
28177;DHT22;15461;41.652;9.378;2022-09-01T15:12:23;29.60;99.90
28177;DHT22;15461;41.652;9.378;2022-09-01T15:14:49;29.70;99.90
28177;DHT22;15461;41.652;9.378;2022-09-01T15:17:15;29.60;99.90
28177;DHT22;15461;41.652;9.378;2022-09-01T15:19:40;29.60;99.90
28177;DHT22;15461;41.652;9.378;2022-09-01T15:22:06;29.60;99.90
28177;DHT22;15461;41.652;9.378;2022-09-01T15:24:33;29.40;99.90
28177;DHT22;15461;41.652;9.378;2022-09-01T15:26:59;29.50;99.90
28177;DHT22;15461;41.652;9.378;2022-09-01T15:29:25;29.50;99.90
28177;DHT22;15461;41.652;9.378;2022-09-01T15:31:50;29.20;99.90
28177;DHT22;15461;41.652;9.378;2022-09-01T15:34:18;29.10;99.90
28177;DHT22;15461;41.652;9.378;2022-09-01T15:36:44;29.20;99.90
28177;DHT22;15461;41.652;9.378;2022-09-01T15:39:10;29.30;99.90
28177;DHT22;15461;41.652;9.378;2022-09-01T15:41:36;29.40;99.90
28177;DHT22;15461;41.652;9.378;2022-09-01T15:44:03;29.30;99.90
28177;DHT22;15461;41.652;9.378;2022-09-01T15:46:33;29.20;99.90
28177;DHT22;15461;41.652;9.378;2022-09-01T15:48:59;29.00;99.90
28177;DHT22;15461;41.652;9.378;2022-09-01T15:51:32;28.70;99.90
28177;DHT22;15461;41.652;9.378;2022-09-01T15:54:03;28.50;99.90
28177;DHT22;15461;41.652;9.378;2022-09-01T15:56:29;28.30;99.90
28177;DHT22;15461;41.652;9.378;2022-09-01T15:58:55;28.20;99.90
28177;DHT22;15461;41.652;9.378;2022-09-01T16:01:23;28.00;99.90
28177;DHT22;15461;41.652;9.378;2022-09-01T16:03:49;27.90;99.90
28177;DHT22;15461;41.652;9.378;2022-09-01T16:06:15;27.80;99.90
28177;DHT22;15461;41.652;9.378;2022-09-01T16:08:41;27.80;99.90
28177;DHT22;15461;41.652;9.378;2022-09-01T16:11:07;27.60;99.90
28177;DHT22;15461;41.652;9.378;2022-09-01T16:13:38;27.50;99.90
28177;DHT22;15461;41.652;9.378;2022-09-01T16:18:37;27.20;99.90
28177;DHT22;15461;41.652;9.378;2022-09-01T16:23:46;27.20;99.90
28177;DHT22;15461;41.652;9.378;2022-09-01T16:26:14;27.20;99.90
28177;DHT22;15461;41.652;9.378;2022-09-01T16:28:53;27.30;99.90
28177;DHT22;15461;41.652;9.378;2022-09-01T16:31:26;27.40;99.90
28177;DHT22;15461;41.652;9.378;2022-09-01T16:33:53;27.30;99.90
28177;DHT22;15461;41.652;9.378;2022-09-01T16:38:49;27.00;99.90
28177;DHT22;15461;41.652;9.378;2022-09-01T16:43:53;27.00;99.90
28177;DHT22;15461;41.652;9.378;2022-09-01T16:46:36;26.90;99.90
28177;DHT22;15461;41.652;9.378;2022-09-01T16:51:57;27.00;99.90
28177;DHT22;15461;41.652;9.378;2022-09-01T16:54:35;27.10;99.90
28177;DHT22;15461;41.652;9.378;2022-09-01T17:02:04;27.10;99.90
28177;DHT22;15461;41.652;9.378;2022-09-01T17:04:34;27.20;99.90
28177;DHT22;15461;41.652;9.378;2022-09-01T17:07:07;27.20;99.90
28177;DHT22;15461;41.652;9.378;2022-09-01T17:09:40;27.10;99.90
28177;DHT22;15461;41.652;9.378;2022-09-01T17:12:20;27.10;99.90
28177;DHT22;15461;41.652;9.378;2022-09-01T17:14:49;27.10;99.90
28177;DHT22;15461;41.652;9.378;2022-09-01T17:17:19;27.10;99.90
28177;DHT22;15461;41.652;9.378;2022-09-01T17:19:45;27.10;99.90
28177;DHT22;15461;41.652;9.378;2022-09-01T17:22:16;27.00;99.90